sensor_id;sensor_type;location;lat;lon;timestamp;temperature;humidity
77865;DHT22;67061;48.524;9.040;2023-08-08T00:01:12;10.00;97.60
77865;DHT22;67061;48.524;9.040;2023-08-08T00:03:39;10.00;97.30
77865;DHT22;67061;48.524;9.040;2023-08-08T00:06:06;10.00;98.00
77865;DHT22;67061;48.524;9.040;2023-08-08T00:08:34;10.00;97.20
77865;DHT22;67061;48.524;9.040;2023-08-08T00:11:01;10.00;97.90
77865;DHT22;67061;48.524;9.040;2023-08-08T00:13:28;10.00;98.30
77865;DHT22;67061;48.524;9.040;2023-08-08T00:15:55;10.00;97.70
77865;DHT22;67061;48.524;9.040;2023-08-08T00:18:22;10.00;98.40
77865;DHT22;67061;48.524;9.040;2023-08-08T00:20:49;10.00;98.50
77865;DHT22;67061;48.524;9.040;2023-08-08T00:23:16;10.00;98.60
77865;DHT22;67061;48.524;9.040;2023-08-08T00:25:44;10.00;98.40
77865;DHT22;67061;48.524;9.040;2023-08-08T00:28:15;10.00;98.50
77865;DHT22;67061;48.524;9.040;2023-08-08T00:30:42;10.00;98.40
77865;DHT22;67061;48.524;9.040;2023-08-08T00:33:09;10.00;98.20
77865;DHT22;67061;48.524;9.040;2023-08-08T00:35:36;10.00;98.10
77865;DHT22;67061;48.524;9.040;2023-08-08T00:38:03;10.10;98.40
77865;DHT22;67061;48.524;9.040;2023-08-08T00:40:30;10.10;98.30
77865;DHT22;67061;48.524;9.040;2023-08-08T00:42:58;10.20;98.00
77865;DHT22;67061;48.524;9.040;2023-08-08T00:45:25;10.20;97.90
77865;DHT22;67061;48.524;9.040;2023-08-08T00:47:52;10.20;97.60
77865;DHT22;67061;48.524;9.040;2023-08-08T00:50:20;10.30;97.50
77865;DHT22;67061;48.524;9.040;2023-08-08T00:52:47;10.30;97.90
77865;DHT22;67061;48.524;9.040;2023-08-08T00:55:14;10.40;97.50
77865;DHT22;67061;48.524;9.040;2023-08-08T00:57:41;10.40;97.50
77865;DHT22;67061;48.524;9.040;2023-08-08T01:00:10;10.40;97.40
77865;DHT22;67061;48.524;9.040;2023-08-08T01:02:38;10.40;96.80
77865;DHT22;67061;48.524;9.040;2023-08-08T01:05:06;10.40;96.20
77865;DHT22;67061;48.524;9.040;2023-08-08T01:07:37;10.40;96.50
77865;DHT22;67061;48.524;9.040;2023-08-08T01:10:08;10.40;96.40
77865;DHT22;67061;48.524;9.040;2023-08-08T01:12:40;10.40;97.20
77865;DHT22;67061;48.524;9.040;2023-08-08T01:15:09;10.40;96.90
77865;DHT22;67061;48.524;9.040;2023-08-08T01:17:37;10.40;97.20
77865;DHT22;67061;48.524;9.040;2023-08-08T01:20:05;10.40;97.30
77865;DHT22;67061;48.524;9.040;2023-08-08T01:22:37;10.40;97.50
77865;DHT22;67061;48.524;9.040;2023-08-08T01:25:08;10.40;97.30
77865;DHT22;67061;48.524;9.040;2023-08-08T01:27:36;10.40;97.70
77865;DHT22;67061;48.524;9.040;2023-08-08T01:30:03;10.40;97.60
77865;DHT22;67061;48.524;9.040;2023-08-08T01:32:30;10.30;97.20
77865;DHT22;67061;48.524;9.040;2023-08-08T01:34:57;10.30;98.00
77865;DHT22;67061;48.524;9.040;2023-08-08T01:37:29;10.30;98.30
77865;DHT22;67061;48.524;9.040;2023-08-08T01:39:59;10.30;97.80
77865;DHT22;67061;48.524;9.040;2023-08-08T01:42:28;10.40;98.40
77865;DHT22;67061;48.524;9.040;2023-08-08T01:44:56;10.40;98.20
77865;DHT22;67061;48.524;9.040;2023-08-08T01:47:23;10.40;98.20
77865;DHT22;67061;48.524;9.040;2023-08-08T01:49:50;10.40;98.00
77865;DHT22;67061;48.524;9.040;2023-08-08T01:52:17;10.40;98.20
77865;DHT22;67061;48.524;9.040;2023-08-08T01:54:44;10.40;98.00
77865;DHT22;67061;48.524;9.040;2023-08-08T01:57:10;10.40;98.70
77865;DHT22;67061;48.524;9.040;2023-08-08T01:59:39;10.40;98.30
77865;DHT22;67061;48.524;9.040;2023-08-08T02:02:06;10.40;98.20
77865;DHT22;67061;48.524;9.040;2023-08-08T02:04:33;10.30;98.20
77865;DHT22;67061;48.524;9.040;2023-08-08T02:07:00;10.30;98.20
77865;DHT22;67061;48.524;9.040;2023-08-08T02:09:27;10.30;98.30
77865;DHT22;67061;48.524;9.040;2023-08-08T02:11:54;10.20;98.60
77865;DHT22;67061;48.524;9.040;2023-08-08T02:14:20;10.20;98.80
77865;DHT22;67061;48.524;9.040;2023-08-08T02:16:49;10.20;99.60
77865;DHT22;67061;48.524;9.040;2023-08-08T02:19:15;10.20;99.40
77865;DHT22;67061;48.524;9.040;2023-08-08T02:21:42;10.20;99.50
77865;DHT22;67061;48.524;9.040;2023-08-08T02:24:09;10.20;99.90
77865;DHT22;67061;48.524;9.040;2023-08-08T02:26:36;10.20;99.80
77865;DHT22;67061;48.524;9.040;2023-08-08T02:29:03;10.20;99.80
77865;DHT22;67061;48.524;9.040;2023-08-08T02:31:30;10.20;99.80
77865;DHT22;67061;48.524;9.040;2023-08-08T02:33:58;10.30;99.30
77865;DHT22;67061;48.524;9.040;2023-08-08T02:36:25;10.30;99.70
77865;DHT22;67061;48.524;9.040;2023-08-08T02:38:52;10.30;99.60
77865;DHT22;67061;48.524;9.040;2023-08-08T02:41:19;10.30;99.90
77865;DHT22;67061;48.524;9.040;2023-08-08T02:43:46;10.30;99.30
77865;DHT22;67061;48.524;9.040;2023-08-08T02:46:13;10.30;99.40
77865;DHT22;67061;48.524;9.040;2023-08-08T02:48:40;10.30;99.80
77865;DHT22;67061;48.524;9.040;2023-08-08T02:51:08;10.30;99.90
77865;DHT22;67061;48.524;9.040;2023-08-08T02:53:35;10.30;99.40
77865;DHT22;67061;48.524;9.040;2023-08-08T02:56:02;10.30;99.20
77865;DHT22;67061;48.524;9.040;2023-08-08T02:58:29;10.30;99.40
77865;DHT22;67061;48.524;9.040;2023-08-08T03:00:56;10.30;99.90
77865;DHT22;67061;48.524;9.040;2023-08-08T03:03:23;10.30;99.90
77865;DHT22;67061;48.524;9.040;2023-08-08T03:05:50;10.30;99.90
77865;DHT22;67061;48.524;9.040;2023-08-08T03:08:18;10.30;99.90
77865;DHT22;67061;48.524;9.040;2023-08-08T03:10:45;10.20;99.90
77865;DHT22;67061;48.524;9.040;2023-08-08T03:13:12;10.20;99.90
77865;DHT22;67061;48.524;9.040;2023-08-08T03:15:39;10.20;99.90
77865;DHT22;67061;48.524;9.040;2023-08-08T03:18:06;10.20;99.90
77865;DHT22;67061;48.524;9.040;2023-08-08T03:20:33;10.20;99.90
77865;DHT22;67061;48.524;9.040;2023-08-08T03:23:00;10.20;99.90
77865;DHT22;67061;48.524;9.040;2023-08-08T03:25:28;10.20;99.90
77865;DHT22;67061;48.524;9.040;2023-08-08T03:27:55;10.20;99.90
77865;DHT22;67061;48.524;9.040;2023-08-08T03:30:22;10.30;99.90
77865;DHT22;67061;48.524;9.040;2023-08-08T03:32:48;10.30;99.90
77865;DHT22;67061;48.524;9.040;2023-08-08T03:35:15;10.40;99.80
77865;DHT22;67061;48.524;9.040;2023-08-08T03:37:42;10.40;99.60
77865;DHT22;67061;48.524;9.040;2023-08-08T03:40:10;10.40;99.70
77865;DHT22;67061;48.524;9.040;2023-08-08T03:42:39;10.40;99.70
77865;DHT22;67061;48.524;9.040;2023-08-08T03:45:06;10.40;99.70
77865;DHT22;67061;48.524;9.040;2023-08-08T03:47:33;10.30;99.70
77865;DHT22;67061;48.524;9.040;2023-08-08T03:50:00;10.40;99.80
77865;DHT22;67061;48.524;9.040;2023-08-08T03:52:27;10.30;99.90
77865;DHT22;67061;48.524;9.040;2023-08-08T03:54:54;10.30;99.90
77865;DHT22;67061;48.524;9.040;2023-08-08T03:57:21;10.30;99.90
77865;DHT22;67061;48.524;9.040;2023-08-08T03:59:49;10.30;99.90
77865;DHT22;67061;48.524;9.040;2023-08-08T04:02:16;10.30;99.90
77865;DHT22;67061;48.524;9.040;2023-08-08T04:04:43;10.30;99.90
77865;DHT22;67061;48.524;9.040;2023-08-08T04:07:11;10.40;99.90
77865;DHT22;67061;48.524;9.040;2023-08-08T04:09:38;10.40;99.90
77865;DHT22;67061;48.524;9.040;2023-08-08T04:12:05;10.40;99.90
77865;DHT22;67061;48.524;9.040;2023-08-08T04:14:32;10.30;99.90
77865;DHT22;67061;48.524;9.040;2023-08-08T04:17:01;10.20;99.90
77865;DHT22;67061;48.524;9.040;2023-08-08T04:19:28;10.10;99.90
77865;DHT22;67061;48.524;9.040;2023-08-08T04:21:55;10.10;99.90
77865;DHT22;67061;48.524;9.040;2023-08-08T04:24:22;10.00;99.90
77865;DHT22;67061;48.524;9.040;2023-08-08T04:26:49;10.00;99.90
77865;DHT22;67061;48.524;9.040;2023-08-08T04:29:16;10.00;99.90
77865;DHT22;67061;48.524;9.040;2023-08-08T04:31:42;10.00;99.90
77865;DHT22;67061;48.524;9.040;2023-08-08T04:34:11;10.00;99.90
77865;DHT22;67061;48.524;9.040;2023-08-08T04:36:37;10.00;99.90
77865;DHT22;67061;48.524;9.040;2023-08-08T04:39:04;10.00;99.90
77865;DHT22;67061;48.524;9.040;2023-08-08T04:41:31;10.00;99.90
77865;DHT22;67061;48.524;9.040;2023-08-08T04:43:58;10.00;99.90
77865;DHT22;67061;48.524;9.040;2023-08-08T04:46:25;10.00;99.90
77865;DHT22;67061;48.524;9.040;2023-08-08T04:48:52;10.00;99.90
77865;DHT22;67061;48.524;9.040;2023-08-08T04:51:20;10.00;99.90
77865;DHT22;67061;48.524;9.040;2023-08-08T04:53:47;10.00;99.90
77865;DHT22;67061;48.524;9.040;2023-08-08T04:56:14;10.00;99.90
77865;DHT22;67061;48.524;9.040;2023-08-08T04:58:41;10.00;99.90
77865;DHT22;67061;48.524;9.040;2023-08-08T05:01:08;10.10;99.90
77865;DHT22;67061;48.524;9.040;2023-08-08T05:03:39;10.10;99.90
77865;DHT22;67061;48.524;9.040;2023-08-08T05:06:06;10.10;99.90
77865;DHT22;67061;48.524;9.040;2023-08-08T05:08:34;10.10;99.90
77865;DHT22;67061;48.524;9.040;2023-08-08T05:11:01;10.10;99.90
77865;DHT22;67061;48.524;9.040;2023-08-08T05:13:28;10.10;99.90
77865;DHT22;67061;48.524;9.040;2023-08-08T05:15:55;10.10;99.90
77865;DHT22;67061;48.524;9.040;2023-08-08T05:18:22;10.10;99.90
77865;DHT22;67061;48.524;9.040;2023-08-08T05:20:49;10.20;99.90
77865;DHT22;67061;48.524;9.040;2023-08-08T05:23:16;10.20;99.90
77865;DHT22;67061;48.524;9.040;2023-08-08T05:25:44;10.30;99.90
77865;DHT22;67061;48.524;9.040;2023-08-08T05:28:11;10.30;99.90
77865;DHT22;67061;48.524;9.040;2023-08-08T05:30:38;10.40;99.90
77865;DHT22;67061;48.524;9.040;2023-08-08T05:33:05;10.40;99.90
77865;DHT22;67061;48.524;9.040;2023-08-08T05:35:32;10.50;99.90
77865;DHT22;67061;48.524;9.040;2023-08-08T05:37:59;10.60;99.90
77865;DHT22;67061;48.524;9.040;2023-08-08T05:40:26;10.60;99.90
77865;DHT22;67061;48.524;9.040;2023-08-08T05:42:54;10.70;99.90
77865;DHT22;67061;48.524;9.040;2023-08-08T05:45:21;10.80;99.90
77865;DHT22;67061;48.524;9.040;2023-08-08T05:47:48;10.90;99.90
77865;DHT22;67061;48.524;9.040;2023-08-08T05:50:15;11.00;99.80
77865;DHT22;67061;48.524;9.040;2023-08-08T05:52:42;11.00;99.70
77865;DHT22;67061;48.524;9.040;2023-08-08T05:55:09;11.10;99.90
77865;DHT22;67061;48.524;9.040;2023-08-08T05:57:35;11.10;99.90
77865;DHT22;67061;48.524;9.040;2023-08-08T06:00:06;11.20;99.90
77865;DHT22;67061;48.524;9.040;2023-08-08T06:02:36;11.30;99.90
77865;DHT22;67061;48.524;9.040;2023-08-08T06:05:03;11.50;99.80
77865;DHT22;67061;48.524;9.040;2023-08-08T06:07:30;11.50;99.20
77865;DHT22;67061;48.524;9.040;2023-08-08T06:09:57;11.70;99.50
77865;DHT22;67061;48.524;9.040;2023-08-08T06:12:24;11.80;98.20
77865;DHT22;67061;48.524;9.040;2023-08-08T06:14:51;11.90;95.70
77865;DHT22;67061;48.524;9.040;2023-08-08T06:17:20;12.20;93.60
77865;DHT22;67061;48.524;9.040;2023-08-08T06:19:49;12.40;92.20
77865;DHT22;67061;48.524;9.040;2023-08-08T06:22:16;12.50;91.00
77865;DHT22;67061;48.524;9.040;2023-08-08T06:24:42;12.70;90.50
77865;DHT22;67061;48.524;9.040;2023-08-08T06:27:10;12.90;88.90
77865;DHT22;67061;48.524;9.040;2023-08-08T06:29:37;13.00;87.90
77865;DHT22;67061;48.524;9.040;2023-08-08T06:32:04;13.20;87.50
77865;DHT22;67061;48.524;9.040;2023-08-08T06:34:32;13.30;86.20
77865;DHT22;67061;48.524;9.040;2023-08-08T06:36:59;13.50;85.70
77865;DHT22;67061;48.524;9.040;2023-08-08T06:39:26;13.50;85.20
77865;DHT22;67061;48.524;9.040;2023-08-08T06:41:53;13.60;85.60
77865;DHT22;67061;48.524;9.040;2023-08-08T06:44:19;13.70;84.60
77865;DHT22;67061;48.524;9.040;2023-08-08T06:46:46;13.80;84.30
77865;DHT22;67061;48.524;9.040;2023-08-08T06:49:13;13.90;84.20
77865;DHT22;67061;48.524;9.040;2023-08-08T06:51:41;13.90;84.10
77865;DHT22;67061;48.524;9.040;2023-08-08T06:54:08;14.00;84.00
77865;DHT22;67061;48.524;9.040;2023-08-08T06:56:35;14.10;83.20
77865;DHT22;67061;48.524;9.040;2023-08-08T06:59:02;14.20;83.70
77865;DHT22;67061;48.524;9.040;2023-08-08T07:01:29;14.40;82.30
77865;DHT22;67061;48.524;9.040;2023-08-08T07:03:56;14.50;81.80
77865;DHT22;67061;48.524;9.040;2023-08-08T07:06:23;14.70;80.40
77865;DHT22;67061;48.524;9.040;2023-08-08T07:08:51;14.80;80.30
77865;DHT22;67061;48.524;9.040;2023-08-08T07:11:18;14.90;78.90
77865;DHT22;67061;48.524;9.040;2023-08-08T07:13:46;15.00;78.60
77865;DHT22;67061;48.524;9.040;2023-08-08T07:16:13;15.20;78.40
77865;DHT22;67061;48.524;9.040;2023-08-08T07:18:40;15.30;76.50
77865;DHT22;67061;48.524;9.040;2023-08-08T07:21:06;15.40;76.20
77865;DHT22;67061;48.524;9.040;2023-08-08T07:23:33;15.50;75.90
77865;DHT22;67061;48.524;9.040;2023-08-08T07:26:02;15.50;76.20
77865;DHT22;67061;48.524;9.040;2023-08-08T07:28:28;15.60;76.40
77865;DHT22;67061;48.524;9.040;2023-08-08T07:30:55;15.80;76.80
77865;DHT22;67061;48.524;9.040;2023-08-08T07:33:22;16.00;75.80
77865;DHT22;67061;48.524;9.040;2023-08-08T07:35:49;16.10;74.70
77865;DHT22;67061;48.524;9.040;2023-08-08T07:38:16;16.30;71.80
77865;DHT22;67061;48.524;9.040;2023-08-08T07:40:43;16.40;70.90
77865;DHT22;67061;48.524;9.040;2023-08-08T07:43:12;16.50;70.70
77865;DHT22;67061;48.524;9.040;2023-08-08T07:45:39;16.70;69.70
77865;DHT22;67061;48.524;9.040;2023-08-08T07:48:07;16.70;70.40
77865;DHT22;67061;48.524;9.040;2023-08-08T07:50:34;16.90;70.00
77865;DHT22;67061;48.524;9.040;2023-08-08T07:53:00;16.90;67.70
77865;DHT22;67061;48.524;9.040;2023-08-08T07:55:28;17.00;67.60
77865;DHT22;67061;48.524;9.040;2023-08-08T07:57:55;17.00;67.20
77865;DHT22;67061;48.524;9.040;2023-08-08T08:00:23;17.10;67.50
77865;DHT22;67061;48.524;9.040;2023-08-08T08:02:50;17.20;67.40
77865;DHT22;67061;48.524;9.040;2023-08-08T08:05:16;17.20;66.70
77865;DHT22;67061;48.524;9.040;2023-08-08T08:07:44;17.40;66.80
77865;DHT22;67061;48.524;9.040;2023-08-08T08:10:11;17.50;67.00
77865;DHT22;67061;48.524;9.040;2023-08-08T08:12:39;17.50;64.70
77865;DHT22;67061;48.524;9.040;2023-08-08T08:15:07;17.50;65.90
77865;DHT22;67061;48.524;9.040;2023-08-08T08:17:36;17.50;66.20
77865;DHT22;67061;48.524;9.040;2023-08-08T08:20:04;17.70;65.80
77865;DHT22;67061;48.524;9.040;2023-08-08T08:22:36;17.80;65.30
77865;DHT22;67061;48.524;9.040;2023-08-08T08:25:04;17.80;64.00
77865;DHT22;67061;48.524;9.040;2023-08-08T08:27:31;17.90;65.30
77865;DHT22;67061;48.524;9.040;2023-08-08T08:29:57;18.00;64.10
77865;DHT22;67061;48.524;9.040;2023-08-08T08:32:24;18.00;63.90
77865;DHT22;67061;48.524;9.040;2023-08-08T08:34:53;18.00;63.90
77865;DHT22;67061;48.524;9.040;2023-08-08T08:37:19;18.00;63.20
77865;DHT22;67061;48.524;9.040;2023-08-08T08:39:46;18.00;63.70
77865;DHT22;67061;48.524;9.040;2023-08-08T08:42:14;18.00;64.30
77865;DHT22;67061;48.524;9.040;2023-08-08T08:44:42;18.00;63.00
77865;DHT22;67061;48.524;9.040;2023-08-08T08:47:12;18.10;63.20
77865;DHT22;67061;48.524;9.040;2023-08-08T08:49:41;18.20;61.60
77865;DHT22;67061;48.524;9.040;2023-08-08T08:52:10;18.40;62.50
77865;DHT22;67061;48.524;9.040;2023-08-08T08:54:37;18.60;61.10
77865;DHT22;67061;48.524;9.040;2023-08-08T08:57:05;18.60;59.10
77865;DHT22;67061;48.524;9.040;2023-08-08T08:59:32;18.60;59.80
77865;DHT22;67061;48.524;9.040;2023-08-08T09:01:59;18.60;60.00
77865;DHT22;67061;48.524;9.040;2023-08-08T09:04:28;18.60;58.60
77865;DHT22;67061;48.524;9.040;2023-08-08T09:06:56;18.70;60.00
77865;DHT22;67061;48.524;9.040;2023-08-08T09:09:24;18.90;58.60
77865;DHT22;67061;48.524;9.040;2023-08-08T09:11:52;18.90;57.30
77865;DHT22;67061;48.524;9.040;2023-08-08T09:14:21;18.90;59.30
77865;DHT22;67061;48.524;9.040;2023-08-08T09:16:49;18.80;58.30
77865;DHT22;67061;48.524;9.040;2023-08-08T09:19:17;18.80;59.40
77865;DHT22;67061;48.524;9.040;2023-08-08T09:21:44;18.90;58.10
77865;DHT22;67061;48.524;9.040;2023-08-08T09:24:11;18.90;58.60
77865;DHT22;67061;48.524;9.040;2023-08-08T09:26:40;19.00;59.30
77865;DHT22;67061;48.524;9.040;2023-08-08T09:29:08;19.00;59.20
77865;DHT22;67061;48.524;9.040;2023-08-08T09:31:35;18.90;59.20
77865;DHT22;67061;48.524;9.040;2023-08-08T09:34:04;19.00;59.10
77865;DHT22;67061;48.524;9.040;2023-08-08T09:36:31;19.10;59.00
77865;DHT22;67061;48.524;9.040;2023-08-08T09:39:00;19.20;59.40
77865;DHT22;67061;48.524;9.040;2023-08-08T09:41:28;19.20;57.80
77865;DHT22;67061;48.524;9.040;2023-08-08T09:43:56;19.20;57.70
77865;DHT22;67061;48.524;9.040;2023-08-08T09:46:25;19.30;58.00
77865;DHT22;67061;48.524;9.040;2023-08-08T09:48:52;19.20;57.00
77865;DHT22;67061;48.524;9.040;2023-08-08T09:51:20;19.30;57.50
77865;DHT22;67061;48.524;9.040;2023-08-08T09:53:48;19.40;57.70
77865;DHT22;67061;48.524;9.040;2023-08-08T09:56:16;19.50;55.40
77865;DHT22;67061;48.524;9.040;2023-08-08T09:58:44;19.40;55.70
77865;DHT22;67061;48.524;9.040;2023-08-08T10:01:14;19.40;56.20
77865;DHT22;67061;48.524;9.040;2023-08-08T10:03:41;19.40;56.80
77865;DHT22;67061;48.524;9.040;2023-08-08T10:06:09;19.40;56.90
77865;DHT22;67061;48.524;9.040;2023-08-08T10:08:36;19.50;56.00
77865;DHT22;67061;48.524;9.040;2023-08-08T10:11:05;19.70;55.80
77865;DHT22;67061;48.524;9.040;2023-08-08T10:13:35;19.80;55.90
77865;DHT22;67061;48.524;9.040;2023-08-08T10:16:07;19.90;55.60
77865;DHT22;67061;48.524;9.040;2023-08-08T10:18:36;20.00;56.10
77865;DHT22;67061;48.524;9.040;2023-08-08T10:21:04;20.00;54.50
77865;DHT22;67061;48.524;9.040;2023-08-08T10:23:35;20.00;55.30
77865;DHT22;67061;48.524;9.040;2023-08-08T10:26:02;20.00;55.20
77865;DHT22;67061;48.524;9.040;2023-08-08T10:28:32;20.00;53.30
77865;DHT22;67061;48.524;9.040;2023-08-08T10:31:00;20.00;55.40
77865;DHT22;67061;48.524;9.040;2023-08-08T10:33:28;20.10;54.10
77865;DHT22;67061;48.524;9.040;2023-08-08T10:36:01;20.00;52.70
77865;DHT22;67061;48.524;9.040;2023-08-08T10:38:40;20.00;53.90
77865;DHT22;67061;48.524;9.040;2023-08-08T10:41:09;19.90;53.60
77865;DHT22;67061;48.524;9.040;2023-08-08T10:43:36;20.00;55.80
77865;DHT22;67061;48.524;9.040;2023-08-08T10:46:04;20.00;54.10
77865;DHT22;67061;48.524;9.040;2023-08-08T10:48:31;20.10;52.50
77865;DHT22;67061;48.524;9.040;2023-08-08T10:51:00;20.10;54.80
77865;DHT22;67061;48.524;9.040;2023-08-08T10:53:28;20.30;52.40
77865;DHT22;67061;48.524;9.040;2023-08-08T10:55:59;20.30;51.40
77865;DHT22;67061;48.524;9.040;2023-08-08T10:58:37;20.30;51.40
77865;DHT22;67061;48.524;9.040;2023-08-08T11:01:04;20.40;52.40
77865;DHT22;67061;48.524;9.040;2023-08-08T11:03:35;20.60;52.10
77865;DHT22;67061;48.524;9.040;2023-08-08T11:06:03;20.80;52.10
77865;DHT22;67061;48.524;9.040;2023-08-08T11:08:31;20.90;51.30
77865;DHT22;67061;48.524;9.040;2023-08-08T11:10:58;21.10;49.60
77865;DHT22;67061;48.524;9.040;2023-08-08T11:13:26;21.00;48.90
77865;DHT22;67061;48.524;9.040;2023-08-08T11:15:53;20.80;50.30
77865;DHT22;67061;48.524;9.040;2023-08-08T11:18:20;20.90;49.80
77865;DHT22;67061;48.524;9.040;2023-08-08T11:20:48;21.10;46.10
77865;DHT22;67061;48.524;9.040;2023-08-08T11:23:16;20.90;46.60
77865;DHT22;67061;48.524;9.040;2023-08-08T11:25:45;20.70;47.90
77865;DHT22;67061;48.524;9.040;2023-08-08T11:28:12;20.70;50.20
77865;DHT22;67061;48.524;9.040;2023-08-08T11:30:42;20.70;50.00
77865;DHT22;67061;48.524;9.040;2023-08-08T11:33:09;20.90;50.20
77865;DHT22;67061;48.524;9.040;2023-08-08T11:35:37;21.10;49.40
77865;DHT22;67061;48.524;9.040;2023-08-08T11:38:05;21.40;49.20
77865;DHT22;67061;48.524;9.040;2023-08-08T11:40:34;21.20;47.90
77865;DHT22;67061;48.524;9.040;2023-08-08T11:43:01;20.90;48.20
77865;DHT22;67061;48.524;9.040;2023-08-08T11:45:28;20.80;49.20
77865;DHT22;67061;48.524;9.040;2023-08-08T11:47:55;21.10;49.40
77865;DHT22;67061;48.524;9.040;2023-08-08T11:50:23;21.40;50.20
77865;DHT22;67061;48.524;9.040;2023-08-08T11:52:51;21.60;46.60
77865;DHT22;67061;48.524;9.040;2023-08-08T11:55:19;21.80;44.70
77865;DHT22;67061;48.524;9.040;2023-08-08T11:57:49;21.60;47.30
77865;DHT22;67061;48.524;9.040;2023-08-08T12:00:17;21.70;47.10
77865;DHT22;67061;48.524;9.040;2023-08-08T12:02:44;22.00;46.40
77865;DHT22;67061;48.524;9.040;2023-08-08T12:05:13;22.30;45.40
77865;DHT22;67061;48.524;9.040;2023-08-08T12:07:42;22.50;45.10
77865;DHT22;67061;48.524;9.040;2023-08-08T12:10:15;22.60;45.50
77865;DHT22;67061;48.524;9.040;2023-08-08T12:12:43;22.70;42.70
77865;DHT22;67061;48.524;9.040;2023-08-08T12:15:12;22.90;43.10
77865;DHT22;67061;48.524;9.040;2023-08-08T12:17:39;23.30;42.30
77865;DHT22;67061;48.524;9.040;2023-08-08T12:20:07;23.50;42.30
77865;DHT22;67061;48.524;9.040;2023-08-08T12:22:35;23.60;42.10
77865;DHT22;67061;48.524;9.040;2023-08-08T12:25:02;23.90;42.50
77865;DHT22;67061;48.524;9.040;2023-08-08T12:27:29;23.90;40.70
77865;DHT22;67061;48.524;9.040;2023-08-08T12:29:56;23.70;40.20
77865;DHT22;67061;48.524;9.040;2023-08-08T12:32:25;23.40;41.00
77865;DHT22;67061;48.524;9.040;2023-08-08T12:34:54;23.30;42.10
77865;DHT22;67061;48.524;9.040;2023-08-08T12:37:21;23.40;42.30
77865;DHT22;67061;48.524;9.040;2023-08-08T12:39:48;23.40;41.50
77865;DHT22;67061;48.524;9.040;2023-08-08T12:42:16;23.30;42.40
77865;DHT22;67061;48.524;9.040;2023-08-08T12:44:43;23.60;42.00
77865;DHT22;67061;48.524;9.040;2023-08-08T12:47:10;23.60;42.50
77865;DHT22;67061;48.524;9.040;2023-08-08T12:49:38;23.80;42.20
77865;DHT22;67061;48.524;9.040;2023-08-08T12:52:05;23.60;40.60
77865;DHT22;67061;48.524;9.040;2023-08-08T12:54:32;23.00;42.10
77865;DHT22;67061;48.524;9.040;2023-08-08T12:56:59;22.80;43.40
77865;DHT22;67061;48.524;9.040;2023-08-08T12:59:26;22.80;42.70
77865;DHT22;67061;48.524;9.040;2023-08-08T13:01:53;22.70;42.10
77865;DHT22;67061;48.524;9.040;2023-08-08T13:04:19;22.70;44.60
77865;DHT22;67061;48.524;9.040;2023-08-08T13:06:48;22.90;43.00
77865;DHT22;67061;48.524;9.040;2023-08-08T13:09:15;22.90;43.90
77865;DHT22;67061;48.524;9.040;2023-08-08T13:11:42;23.20;44.00
77865;DHT22;67061;48.524;9.040;2023-08-08T13:14:09;23.20;42.80
77865;DHT22;67061;48.524;9.040;2023-08-08T13:16:36;22.90;41.40
77865;DHT22;67061;48.524;9.040;2023-08-08T13:19:04;23.10;43.10
77865;DHT22;67061;48.524;9.040;2023-08-08T13:21:31;23.00;43.30
77865;DHT22;67061;48.524;9.040;2023-08-08T13:23:59;23.10;43.20
77865;DHT22;67061;48.524;9.040;2023-08-08T13:26:26;23.10;43.20
77865;DHT22;67061;48.524;9.040;2023-08-08T13:28:53;23.20;42.20
77865;DHT22;67061;48.524;9.040;2023-08-08T13:31:20;23.10;42.00
77865;DHT22;67061;48.524;9.040;2023-08-08T13:33:47;23.10;44.00
77865;DHT22;67061;48.524;9.040;2023-08-08T13:36:14;23.10;43.60
77865;DHT22;67061;48.524;9.040;2023-08-08T13:38:41;22.90;43.50
77865;DHT22;67061;48.524;9.040;2023-08-08T13:41:09;22.60;44.50
77865;DHT22;67061;48.524;9.040;2023-08-08T13:43:36;22.70;44.50
77865;DHT22;67061;48.524;9.040;2023-08-08T13:46:03;22.80;44.80
77865;DHT22;67061;48.524;9.040;2023-08-08T13:48:33;23.00;44.00
77865;DHT22;67061;48.524;9.040;2023-08-08T13:51:00;22.90;44.70
77865;DHT22;67061;48.524;9.040;2023-08-08T13:53:28;22.70;45.80
77865;DHT22;67061;48.524;9.040;2023-08-08T13:55:55;22.70;47.20
77865;DHT22;67061;48.524;9.040;2023-08-08T13:58:24;22.60;45.60
77865;DHT22;67061;48.524;9.040;2023-08-08T14:00:51;22.60;45.40
77865;DHT22;67061;48.524;9.040;2023-08-08T14:03:18;22.60;45.70
77865;DHT22;67061;48.524;9.040;2023-08-08T14:05:44;22.50;44.80
77865;DHT22;67061;48.524;9.040;2023-08-08T14:08:11;22.20;46.00
77865;DHT22;67061;48.524;9.040;2023-08-08T14:10:38;21.90;46.20
77865;DHT22;67061;48.524;9.040;2023-08-08T14:13:05;21.70;47.10
77865;DHT22;67061;48.524;9.040;2023-08-08T14:15:34;21.50;47.70
77865;DHT22;67061;48.524;9.040;2023-08-08T14:18:00;21.50;47.50
77865;DHT22;67061;48.524;9.040;2023-08-08T14:20:27;21.40;49.00
77865;DHT22;67061;48.524;9.040;2023-08-08T14:22:54;21.30;48.50
77865;DHT22;67061;48.524;9.040;2023-08-08T14:25:21;21.30;48.00
77865;DHT22;67061;48.524;9.040;2023-08-08T14:27:49;21.30;48.60
77865;DHT22;67061;48.524;9.040;2023-08-08T14:30:16;21.30;48.60
77865;DHT22;67061;48.524;9.040;2023-08-08T14:32:44;21.20;48.00
77865;DHT22;67061;48.524;9.040;2023-08-08T14:35:11;21.20;48.20
77865;DHT22;67061;48.524;9.040;2023-08-08T14:37:39;21.20;49.60
77865;DHT22;67061;48.524;9.040;2023-08-08T14:40:07;21.30;48.90
77865;DHT22;67061;48.524;9.040;2023-08-08T14:42:34;21.30;47.60
77865;DHT22;67061;48.524;9.040;2023-08-08T14:45:01;21.40;48.00
77865;DHT22;67061;48.524;9.040;2023-08-08T14:47:28;21.50;47.30
77865;DHT22;67061;48.524;9.040;2023-08-08T14:49:57;21.50;47.20
77865;DHT22;67061;48.524;9.040;2023-08-08T14:52:23;21.40;48.20
77865;DHT22;67061;48.524;9.040;2023-08-08T14:54:51;21.30;48.40
77865;DHT22;67061;48.524;9.040;2023-08-08T14:57:18;21.30;49.00
77865;DHT22;67061;48.524;9.040;2023-08-08T14:59:45;21.30;49.20
77865;DHT22;67061;48.524;9.040;2023-08-08T15:02:12;21.30;50.60
77865;DHT22;67061;48.524;9.040;2023-08-08T15:04:39;21.30;49.70
77865;DHT22;67061;48.524;9.040;2023-08-08T15:07:08;21.30;49.50
77865;DHT22;67061;48.524;9.040;2023-08-08T15:09:34;21.20;49.00
77865;DHT22;67061;48.524;9.040;2023-08-08T15:12:03;21.10;49.70
77865;DHT22;67061;48.524;9.040;2023-08-08T15:14:30;21.10;49.60
77865;DHT22;67061;48.524;9.040;2023-08-08T15:16:57;21.10;49.20
77865;DHT22;67061;48.524;9.040;2023-08-08T15:19:24;20.90;50.00
77865;DHT22;67061;48.524;9.040;2023-08-08T15:21:50;20.80;50.50
77865;DHT22;67061;48.524;9.040;2023-08-08T15:24:19;20.90;50.90
77865;DHT22;67061;48.524;9.040;2023-08-08T15:26:46;21.00;51.20
77865;DHT22;67061;48.524;9.040;2023-08-08T15:29:12;21.00;50.40
77865;DHT22;67061;48.524;9.040;2023-08-08T15:31:39;20.90;49.80